Time;durP1;ratioP1;P1;durP2;ratioP2;P2;SDS_P1;SDS_P2;PMS_P1;PMS_P2;Temp;Humidity;BMP_temperature;BMP_pressure;BME280_temperature;BME280_humidity;BME280_pressure;Samples;Min_cycle;Max_cycle;Signal;HPM_P1;HPM_P2
2023/07/18 00:00:41;;;;;;;5.60;2.87;;;;;;;;;;5029479;28;20550;-74
2023/07/18 00:03:07;;;;;;;7.50;3.70;;;;;;;;;;5030880;28;20213;-74
2023/07/18 00:05:34;;;;;;;4.60;3.00;;;;;;;;;;5030282;28;20319;-74
2023/07/18 00:08:00;;;;;;;6.37;3.37;;;;;;;;;;5028487;28;20182;-74
2023/07/18 00:10:26;;;;;;;4.53;3.10;;;;;;;;;;5029827;28;20209;-74
2023/07/18 00:12:52;;;;;;;4.20;3.03;;;;;;;;;;5030696;28;20276;-74
2023/07/18 00:15:19;;;;;;;5.40;2.90;;;;;;;;;;5030356;28;20229;-75
2023/07/18 00:17:45;;;;;;;4.80;3.20;;;;;;;;;;5030043;28;20182;-75
2023/07/18 00:20:17;;;;;;;4.90;2.87;;;;;;;;;;5029336;28;20203;-73
2023/07/18 00:22:48;;;;;;;4.20;3.03;;;;;;;;;;5030457;28;20855;-74
2023/07/18 00:25:16;;;;;;;4.03;2.90;;;;;;;;;;5027906;28;20301;-75
2023/07/18 00:27:42;;;;;;;4.53;3.13;;;;;;;;;;5026544;28;20280;-74
2023/07/18 00:30:08;;;;;;;5.83;2.90;;;;;;;;;;5025838;28;20182;-74
2023/07/18 00:32:35;;;;;;;10.90;3.37;;;;;;;;;;5027971;28;20203;-74
2023/07/18 00:35:03;;;;;;;4.40;3.17;;;;;;;;;;5027583;28;20191;-74
2023/07/18 00:37:31;;;;;;;4.47;2.80;;;;;;;;;;5024937;28;20217;-75
2023/07/18 00:39:57;;;;;;;6.03;3.33;;;;;;;;;;5027844;28;20221;-74
2023/07/18 00:42:23;;;;;;;5.50;2.60;;;;;;;;;;5029215;28;20187;-74
2023/07/18 00:44:50;;;;;;;3.97;2.80;;;;;;;;;;5041536;28;20214;-74
2023/07/18 00:47:18;;;;;;;4.87;3.00;;;;;;;;;;5021794;28;20237;-74
2023/07/18 00:49:44;;;;;;;3.80;2.60;;;;;;;;;;5028566;28;20183;-74
2023/07/18 00:52:29;;;;;;;5.40;2.80;;;;;;;;;;5029719;28;20707;-73
2023/07/18 00:54:55;;;;;;;4.37;2.87;;;;;;;;;;5022938;28;20297;-75
2023/07/18 00:57:22;;;;;;;4.73;2.67;;;;;;;;;;5024705;28;20320;-75
2023/07/18 00:59:50;;;;;;;3.40;2.63;;;;;;;;;;5038227;28;20179;-74
2023/07/18 01:02:16;;;;;;;7.43;3.03;;;;;;;;;;5042711;28;20584;-75
2023/07/18 01:04:42;;;;;;;4.03;2.90;;;;;;;;;;5043789;28;20293;-75
2023/07/18 01:07:09;;;;;;;3.40;2.70;;;;;;;;;;5020023;28;20348;-76
2023/07/18 01:09:43;;;;;;;4.53;2.97;;;;;;;;;;5024707;28;20178;-75
2023/07/18 01:12:10;;;;;;;4.40;3.00;;;;;;;;;;5027664;28;20189;-74
2023/07/18 01:14:36;;;;;;;5.17;3.20;;;;;;;;;;5025534;28;20189;-75
2023/07/18 01:17:05;;;;;;;3.53;3.03;;;;;;;;;;5027584;28;20212;-74
2023/07/18 01:19:32;;;;;;;4.50;3.23;;;;;;;;;;5028962;28;20179;-75
2023/07/18 01:21:58;;;;;;;3.47;2.90;;;;;;;;;;5041217;28;20187;-74
2023/07/18 01:24:25;;;;;;;4.77;3.13;;;;;;;;;;5026632;28;20278;-75
2023/07/18 01:26:52;;;;;;;4.17;2.97;;;;;;;;;;5027476;28;20218;-74
2023/07/18 01:29:21;;;;;;;5.33;3.10;;;;;;;;;;5027085;28;20724;-75
2023/07/18 01:31:48;;;;;;;4.30;2.93;;;;;;;;;;5021419;28;20870;-74
2023/07/18 01:34:14;;;;;;;4.73;2.87;;;;;;;;;;5028734;28;20280;-75
2023/07/18 01:36:41;;;;;;;4.60;3.00;;;;;;;;;;5026216;28;20206;-74
2023/07/18 01:39:08;;;;;;;4.03;2.87;;;;;;;;;;5022790;28;20210;-75
2023/07/18 01:41:35;;;;;;;5.47;3.03;;;;;;;;;;5028968;28;20194;-74
2023/07/18 01:44:01;;;;;;;7.20;3.40;;;;;;;;;;5029196;28;20182;-75
2023/07/18 01:46:28;;;;;;;4.17;2.97;;;;;;;;;;5040930;28;20222;-74
2023/07/18 01:48:57;;;;;;;4.73;3.40;;;;;;;;;;5002170;28;20612;-75
2023/07/18 01:51:24;;;;;;;5.23;2.93;;;;;;;;;;5026553;28;20198;-74
2023/07/18 01:53:57;;;;;;;5.57;2.70;;;;;;;;;;5040383;28;20282;-73
2023/07/18 01:56:35;;;;;;;5.47;2.93;;;;;;;;;;5026681;28;20206;-74
2023/07/18 01:59:04;;;;;;;5.90;2.87;;;;;;;;;;5027838;28;20189;-73
2023/07/18 02:01:31;;;;;;;4.10;2.70;;;;;;;;;;5027338;28;20277;-74
2023/07/18 02:03:57;;;;;;;6.87;2.67;;;;;;;;;;5041001;28;20226;-73
2023/07/18 02:06:24;;;;;;;2.53;2.33;;;;;;;;;;5021279;28;20218;-73
2023/07/18 02:08:52;;;;;;;4.67;2.90;;;;;;;;;;5027286;28;20186;-75
2023/07/18 02:11:18;;;;;;;5.03;2.80;;;;;;;;;;5026766;28;20183;-74
2023/07/18 02:13:45;;;;;;;4.70;3.10;;;;;;;;;;5044620;28;20278;-74
2023/07/18 02:16:12;;;;;;;6.30;2.90;;;;;;;;;;5026541;28;20202;-74
2023/07/18 02:18:43;;;;;;;4.50;2.87;;;;;;;;;;5028281;28;20266;-74
2023/07/18 02:21:13;;;;;;;4.43;2.80;;;;;;;;;;5020206;28;20190;-74
2023/07/18 02:23:40;;;;;;;5.27;2.83;;;;;;;;;;5022675;28;20240;-74
2023/07/18 02:26:07;;;;;;;5.50;3.13;;;;;;;;;;5048693;23;20264;-72
2023/07/18 02:28:33;;;;;;;5.30;2.90;;;;;;;;;;5005511;28;20210;-72
2023/07/18 02:31:00;;;;;;;4.93;2.70;;;;;;;;;;5026525;28;20179;-73
2023/07/18 02:33:26;;;;;;;3.80;2.63;;;;;;;;;;5028067;28;21502;-73
2023/07/18 02:35:52;;;;;;;3.10;2.57;;;;;;;;;;4993414;28;20214;-73
2023/07/18 02:38:18;;;;;;;4.13;3.03;;;;;;;;;;5009194;28;20182;-73
2023/07/18 02:40:44;;;;;;;3.40;2.73;;;;;;;;;;5025848;28;20178;-73
2023/07/18 02:43:10;;;;;;;4.87;2.90;;;;;;;;;;5024771;28;20187;-73
2023/07/18 02:45:36;;;;;;;3.67;2.93;;;;;;;;;;5007385;28;20249;-72
2023/07/18 02:48:03;;;;;;;5.77;2.97;;;;;;;;;;5027692;28;20182;-72
2023/07/18 02:50:29;;;;;;;4.73;2.97;;;;;;;;;;5031868;28;20194;-72
2023/07/18 02:52:58;;;;;;;5.10;3.10;;;;;;;;;;5035256;28;20555;-73
2023/07/18 03:33:25;;;;;;;4.27;2.93;;;;;;;;;;5008381;28;20373;-76
2023/07/18 03:35:51;;;;;;;3.57;2.83;;;;;;;;;;4976182;28;20195;-76
2023/07/18 04:40:44;;;;;;;4.73;3.00;;;;;;;;;;3895693;22;20321;-76
2023/07/18 04:43:10;;;;;;;4.87;3.20;;;;;;;;;;4979772;28;20184;-76
2023/07/18 04:45:41;;;;;;;4.67;3.20;;;;;;;;;;4979574;28;20212;-76
2023/07/18 04:48:08;;;;;;;7.63;4.17;;;;;;;;;;4994346;28;20188;-76
2023/07/18 04:50:36;;;;;;;4.70;3.47;;;;;;;;;;5005019;28;20318;-76
2023/07/18 04:53:03;;;;;;;5.63;3.80;;;;;;;;;;5010285;28;20183;-76
2023/07/18 04:55:29;;;;;;;5.73;3.90;;;;;;;;;;4994047;28;20626;-76
2023/07/18 04:57:55;;;;;;;6.90;3.63;;;;;;;;;;4991914;28;20538;-76
2023/07/18 05:00:21;;;;;;;4.97;3.57;;;;;;;;;;5012603;28;20272;-76
2023/07/18 05:02:47;;;;;;;5.70;4.00;;;;;;;;;;4996258;28;20638;-76
2023/07/18 05:05:13;;;;;;;5.30;4.00;;;;;;;;;;5011650;28;20195;-76
2023/07/18 05:07:43;;;;;;;7.53;5.07;;;;;;;;;;5006904;28;20190;-76
2023/07/18 05:10:10;;;;;;;10.73;5.53;;;;;;;;;;4995404;28;20209;-76
2023/07/18 05:12:36;;;;;;;9.00;4.63;;;;;;;;;;4999164;28;20202;-76
2023/07/18 05:15:02;;;;;;;5.33;3.67;;;;;;;;;;5011231;28;20598;-76
2023/07/18 05:17:29;;;;;;;4.93;3.40;;;;;;;;;;5009000;28;20209;-76
2023/07/18 05:19:55;;;;;;;6.27;3.60;;;;;;;;;;4992246;28;20284;-75
2023/07/18 05:22:22;;;;;;;4.10;3.30;;;;;;;;;;4979828;28;20182;-75
2023/07/18 05:24:48;;;;;;;5.10;3.20;;;;;;;;;;5015395;28;20187;-75
2023/07/18 05:27:14;;;;;;;4.90;3.30;;;;;;;;;;5012478;28;20236;-75
2023/07/18 05:29:40;;;;;;;5.10;3.23;;;;;;;;;;5009751;28;20540;-75
2023/07/18 05:32:07;;;;;;;5.13;3.10;;;;;;;;;;4992520;28;20209;-75
2023/07/18 05:34:34;;;;;;;2.83;2.50;;;;;;;;;;4990108;28;20190;-75
2023/07/18 05:37:00;;;;;;;3.87;2.87;;;;;;;;;;5009165;28;20282;-75
2023/07/18 05:39:30;;;;;;;4.43;3.03;;;;;;;;;;5011676;28;20221;-75
2023/07/18 05:41:57;;;;;;;5.00;3.27;;;;;;;;;;5009891;28;20249;-76
2023/07/18 05:44:23;;;;;;;5.37;3.30;;;;;;;;;;5010156;28;20183;-75
2023/07/18 05:46:49;;;;;;;3.47;2.93;;;;;;;;;;5017032;28;20215;-75
2023/07/18 05:49:16;;;;;;;3.90;3.00;;;;;;;;;;5009115;28;20242;-75
2023/07/18 05:51:42;;;;;;;4.23;2.90;;;;;;;;;;5009139;28;20241;-75
2023/07/18 05:54:08;;;;;;;4.20;2.80;;;;;;;;;;5008358;28;20555;-75
2023/07/18 05:56:35;;;;;;;4.53;2.90;;;;;;;;;;5009095;28;20257;-75
2023/07/18 05:59:01;;;;;;;6.10;3.43;;;;;;;;;;4991691;28;20607;-75
2023/07/18 06:01:27;;;;;;;4.70;3.47;;;;;;;;;;4992223;28;20210;-76
2023/07/18 06:03:54;;;;;;;5.97;3.80;;;;;;;;;;5014532;28;20564;-75
2023/07/18 06:06:20;;;;;;;5.23;3.60;;;;;;;;;;5013919;28;20586;-75
2023/07/18 06:08:46;;;;;;;6.30;3.73;;;;;;;;;;5011857;28;20180;-75
2023/07/18 06:11:13;;;;;;;5.83;3.63;;;;;;;;;;4991071;28;20207;-74
2023/07/18 06:13:41;;;;;;;6.53;3.93;;;;;;;;;;5009336;28;20657;-76
2023/07/18 06:16:07;;;;;;;6.00;3.47;;;;;;;;;;5009142;28;20724;-76
2023/07/18 06:18:35;;;;;;;4.57;3.13;;;;;;;;;;5015808;28;20187;-77
2023/07/18 06:21:02;;;;;;;5.83;3.00;;;;;;;;;;5013368;28;20250;-77
2023/07/18 06:23:30;;;;;;;4.80;2.90;;;;;;;;;;5013335;28;20191;-78
2023/07/18 06:25:56;;;;;;;5.20;3.17;;;;;;;;;;4979798;28;20215;-76
2023/07/18 06:28:22;;;;;;;4.10;3.07;;;;;;;;;;5012426;28;20283;-75
2023/07/18 06:30:54;;;;;;;5.33;2.93;;;;;;;;;;5001411;28;20221;-77
2023/07/18 06:33:20;;;;;;;4.60;3.20;;;;;;;;;;4993270;28;20262;-77
2023/07/18 06:35:53;;;;;;;4.27;3.07;;;;;;;;;;4995294;28;20252;-77
2023/07/18 06:38:20;;;;;;;4.03;2.87;;;;;;;;;;4995290;28;20567;-77
2023/07/18 06:40:47;;;;;;;5.10;2.93;;;;;;;;;;5012554;28;20266;-78
2023/07/18 06:43:13;;;;;;;5.30;2.83;;;;;;;;;;5014412;28;20573;-77
2023/07/18 06:45:40;;;;;;;5.27;2.90;;;;;;;;;;5009412;28;20203;-77
2023/07/18 06:48:06;;;;;;;4.00;2.90;;;;;;;;;;5011994;28;20194;-78
2023/07/18 06:50:32;;;;;;;4.90;2.80;;;;;;;;;;5012263;28;20223;-77
2023/07/18 06:52:58;;;;;;;3.47;2.63;;;;;;;;;;5012119;28;20184;-78
2023/07/18 06:55:24;;;;;;;5.70;2.63;;;;;;;;;;5011075;28;20308;-77
2023/07/18 06:57:50;;;;;;;3.17;2.47;;;;;;;;;;5008690;28;20187;-78
2023/07/18 07:00:19;;;;;;;4.13;2.50;;;;;;;;;;5013866;28;20230;-77
2023/07/18 07:02:45;;;;;;;5.70;2.80;;;;;;;;;;5014385;28;20182;-79
2023/07/18 07:05:12;;;;;;;3.63;2.43;;;;;;;;;;5013379;28;20210;-78
2023/07/18 07:07:38;;;;;;;3.97;2.43;;;;;;;;;;5011229;28;20191;-79
2023/07/18 07:10:04;;;;;;;4.73;2.73;;;;;;;;;;4997376;28;20249;-79
2023/07/18 07:12:34;;;;;;;3.17;2.87;;;;;;;;;;4996499;28;20303;-79
2023/07/18 07:15:01;;;;;;;4.30;2.70;;;;;;;;;;4996564;28;20187;-79
2023/07/18 07:17:27;;;;;;;5.00;2.73;;;;;;;;;;5015745;28;20203;-79
2023/07/18 07:19:53;;;;;;;4.87;3.73;;;;;;;;;;5014633;28;20211;-80
2023/07/18 07:22:19;;;;;;;4.37;2.60;;;;;;;;;;4999055;28;20191;-80
2023/07/18 07:24:47;;;;;;;3.47;2.47;;;;;;;;;;5013356;28;20219;-80
2023/07/18 07:27:13;;;;;;;3.07;2.47;;;;;;;;;;5013821;28;20318;-80
2023/07/18 07:29:40;;;;;;;3.23;2.77;;;;;;;;;;4996881;28;20199;-79
2023/07/18 07:32:07;;;;;;;3.23;2.40;;;;;;;;;;5017417;28;20179;-79
2023/07/18 07:34:33;;;;;;;4.87;2.50;;;;;;;;;;4998892;28;20294;-79
2023/07/18 07:36:59;;;;;;;3.00;2.50;;;;;;;;;;5015833;28;20191;-80
2023/07/18 07:39:25;;;;;;;4.43;2.20;;;;;;;;;;5015454;28;20211;-79
2023/07/18 07:41:52;;;;;;;3.77;2.50;;;;;;;;;;4999222;28;20283;-80
2023/07/18 07:44:18;;;;;;;2.87;2.30;;;;;;;;;;5017577;28;20670;-79
2023/07/18 07:46:44;;;;;;;3.67;2.30;;;;;;;;;;5016022;28;20576;-80
2023/07/18 07:49:11;;;;;;;3.87;2.47;;;;;;;;;;5015644;28;20183;-80
2023/07/18 07:51:37;;;;;;;4.37;2.23;;;;;;;;;;4998381;28;20195;-80
2023/07/18 07:54:03;;;;;;;5.00;2.40;;;;;;;;;;5015161;28;20183;-80
2023/07/18 07:56:30;;;;;;;3.87;2.27;;;;;;;;;;4996894;28;20764;-80
2023/07/18 07:58:56;;;;;;;3.97;2.40;;;;;;;;;;5014696;28;20553;-80
2023/07/18 08:01:22;;;;;;;3.90;2.50;;;;;;;;;;5014349;28;20249;-80
2023/07/18 08:03:48;;;;;;;3.37;2.47;;;;;;;;;;4996713;28;20195;-80
2023/07/18 08:06:14;;;;;;;4.33;2.27;;;;;;;;;;4979316;28;20211;-80
2023/07/18 08:08:40;;;;;;;3.47;2.23;;;;;;;;;;5012149;28;20206;-80
2023/07/18 08:11:06;;;;;;;3.47;2.47;;;;;;;;;;4996589;28;20211;-79
2023/07/18 08:13:32;;;;;;;5.97;2.30;;;;;;;;;;5011379;28;20190;-79
2023/07/18 08:15:58;;;;;;;3.27;2.10;;;;;;;;;;5011671;28;20286;-79
2023/07/18 08:18:25;;;;;;;3.03;2.30;;;;;;;;;;5012697;28;20198;-79
2023/07/18 08:20:51;;;;;;;3.83;2.20;;;;;;;;;;5014512;28;20709;-80
2023/07/18 08:23:17;;;;;;;3.30;2.20;;;;;;;;;;4996800;28;20218;-79
2023/07/18 08:25:43;;;;;;;4.53;2.10;;;;;;;;;;5014034;28;20222;-79
2023/07/18 08:28:10;;;;;;;5.53;2.20;;;;;;;;;;4995123;28;20189;-79
2023/07/18 08:30:39;;;;;;;3.93;2.17;;;;;;;;;;4979856;28;20754;-80
2023/07/18 08:33:05;;;;;;;3.30;2.50;;;;;;;;;;5012921;28;20179;-79
2023/07/18 08:35:31;;;;;;;2.30;2.00;;;;;;;;;;5013610;28;20238;-79
2023/07/18 08:37:57;;;;;;;2.67;2.10;;;;;;;;;;4995874;28;20192;-79
2023/07/18 08:40:23;;;;;;;4.33;2.20;;;;;;;;;;5007678;28;20286;-79
2023/07/18 08:42:51;;;;;;;5.03;2.30;;;;;;;;;;4980917;28;20227;-79
2023/07/18 08:45:17;;;;;;;5.00;2.23;;;;;;;;;;5010239;28;20272;-79
2023/07/18 08:47:45;;;;;;;3.77;2.13;;;;;;;;;;4998390;28;20237;-79
2023/07/18 08:50:11;;;;;;;2.70;2.10;;;;;;;;;;4993465;28;20611;-79
2023/07/18 08:52:38;;;;;;;3.10;2.13;;;;;;;;;;4994644;28;20222;-79
2023/07/18 08:55:05;;;;;;;3.10;1.90;;;;;;;;;;4994778;28;20586;-79
2023/07/18 08:57:32;;;;;;;5.27;2.10;;;;;;;;;;4992739;28;20188;-79
2023/07/18 09:00:04;;;;;;;3.33;2.00;;;;;;;;;;5012729;28;20219;-79
2023/07/18 09:02:37;;;;;;;2.20;1.83;;;;;;;;;;5041827;28;20609;-75
2023/07/18 09:05:04;;;;;;;4.77;2.13;;;;;;;;;;5024056;28;20184;-75
2023/07/18 09:07:35;;;;;;;3.87;2.03;;;;;;;;;;5003875;28;20380;-75
2023/07/18 09:10:02;;;;;;;2.77;1.93;;;;;;;;;;5007575;28;20502;-75
2023/07/18 09:12:28;;;;;;;3.67;2.00;;;;;;;;;;5010723;28;20635;-75
2023/07/18 09:14:57;;;;;;;3.37;2.03;;;;;;;;;;5011882;28;20245;-75
2023/07/18 09:17:24;;;;;;;5.40;1.77;;;;;;;;;;5009907;28;20647;-75
2023/07/18 09:19:51;;;;;;;3.63;1.90;;;;;;;;;;5009572;28;20191;-75
2023/07/18 09:22:17;;;;;;;2.87;2.03;;;;;;;;;;5011989;28;20210;-75
2023/07/18 09:24:44;;;;;;;4.43;1.90;;;;;;;;;;5009266;28;20607;-75
2023/07/18 09:27:15;;;;;;;2.90;2.20;;;;;;;;;;5019892;28;20186;-75
2023/07/18 09:29:45;;;;;;;3.93;2.30;;;;;;;;;;5013542;28;20243;-75
2023/07/18 09:32:18;;;;;;;3.40;2.20;;;;;;;;;;5016800;28;20230;-75
2023/07/18 09:34:54;;;;;;;3.03;2.10;;;;;;;;;;5005463;28;20183;-75
2023/07/18 09:37:20;;;;;;;3.53;2.20;;;;;;;;;;5010225;28;20611;-75
2023/07/18 09:39:47;;;;;;;2.53;1.80;;;;;;;;;;5011045;28;20186;-75
2023/07/18 09:42:13;;;;;;;4.00;2.00;;;;;;;;;;5019168;28;20241;-81
2023/07/18 09:44:40;;;;;;;4.23;2.37;;;;;;;;;;5006614;28;20566;-79
2023/07/18 09:47:07;;;;;;;3.00;2.00;;;;;;;;;;5004364;28;20182;-79
2023/07/18 09:49:34;;;;;;;2.23;2.00;;;;;;;;;;5011853;28;20200;-79
2023/07/18 09:52:06;;;;;;;3.17;2.20;;;;;;;;;;5012150;28;20207;-79
2023/07/18 09:54:33;;;;;;;6.23;2.30;;;;;;;;;;5018079;28;20186;-78
2023/07/18 09:57:12;;;;;;;3.93;2.20;;;;;;;;;;5013820;28;20637;-77
2023/07/18 09:59:38;;;;;;;2.40;2.00;;;;;;;;;;5022781;28;20680;-78
2023/07/18 10:02:06;;;;;;;2.37;2.10;;;;;;;;;;5019766;28;20331;-78
2023/07/18 10:04:33;;;;;;;2.93;2.10;;;;;;;;;;5023924;28;20265;-79
2023/07/18 10:07:01;;;;;;;4.03;2.30;;;;;;;;;;5009666;28;20249;-79
2023/07/18 10:09:28;;;;;;;4.23;2.30;;;;;;;;;;5016656;28;20177;-80
2023/07/18 10:12:15;;;;;;;2.50;1.97;;;;;;;;;;5010710;28;20548;-77
2023/07/18 10:14:57;;;;;;;3.90;2.00;;;;;;;;;;5002451;28;20193;-77
2023/07/18 10:17:26;;;;;;;3.37;1.90;;;;;;;;;;5004450;28;20625;-77
2023/07/18 10:19:52;;;;;;;2.87;2.10;;;;;;;;;;5000803;28;20219;-76
2023/07/18 10:22:26;;;;;;;2.63;2.00;;;;;;;;;;4997548;28;20565;-77
2023/07/18 10:24:52;;;;;;;3.20;2.10;;;;;;;;;;4994434;28;20191;-77
2023/07/18 10:27:24;;;;;;;2.83;2.13;;;;;;;;;;5005441;28;20194;-77
2023/07/18 10:30:06;;;;;;;2.70;2.10;;;;;;;;;;5007050;28;20191;-77
2023/07/18 10:32:32;;;;;;;2.93;2.00;;;;;;;;;;5000960;28;20211;-76
2023/07/18 10:34:59;;;;;;;3.03;2.13;;;;;;;;;;5007444;28;20189;-76
2023/07/18 10:37:26;;;;;;;3.27;2.23;;;;;;;;;;5007568;28;20183;-76
2023/07/18 10:39:53;;;;;;;3.03;2.03;;;;;;;;;;5028116;22;20222;-76
2023/07/18 10:42:21;;;;;;;2.33;1.90;;;;;;;;;;5027075;28;20640;-76
2023/07/18 10:44:48;;;;;;;2.37;2.00;;;;;;;;;;5027618;28;20536;-76
2023/07/18 10:47:15;;;;;;;3.67;2.10;;;;;;;;;;5031192;28;20667;-76
2023/07/18 10:49:42;;;;;;;5.50;2.20;;;;;;;;;;5028252;28;20179;-76
2023/07/18 10:52:08;;;;;;;3.30;2.20;;;;;;;;;;5030930;28;20206;-76
2023/07/18 10:54:35;;;;;;;1.87;1.70;;;;;;;;;;5028090;28;20192;-76
2023/07/18 10:57:01;;;;;;;3.23;2.00;;;;;;;;;;5027463;28;20556;-76
2023/07/18 10:59:27;;;;;;;2.43;1.87;;;;;;;;;;5029924;28;20201;-76
2023/07/18 11:01:53;;;;;;;4.20;2.27;;;;;;;;;;5030019;28;20222;-76
2023/07/18 11:04:22;;;;;;;3.00;2.00;;;;;;;;;;5032754;28;20190;-75
2023/07/18 11:06:49;;;;;;;2.87;2.10;;;;;;;;;;5013798;28;20201;-76
2023/07/18 11:09:16;;;;;;;2.40;1.93;;;;;;;;;;5006393;28;20239;-80
2023/07/18 11:11:42;;;;;;;3.80;2.10;;;;;;;;;;5024110;28;20234;-78
2023/07/18 11:14:08;;;;;;;2.83;2.10;;;;;;;;;;5029803;28;20186;-80
2023/07/18 11:16:36;;;;;;;3.90;2.07;;;;;;;;;;5010158;28;20216;-76
2023/07/18 11:19:05;;;;;;;3.47;2.20;;;;;;;;;;5027686;28;20879;-78
2023/07/18 11:21:32;;;;;;;2.67;2.10;;;;;;;;;;5025774;28;20214;-78
2023/07/18 11:24:02;;;;;;;2.57;2.13;;;;;;;;;;5017117;28;20171;-76
2023/07/18 11:26:28;;;;;;;3.70;2.23;;;;;;;;;;5018829;28;20194;-76
2023/07/18 11:28:58;;;;;;;2.87;2.10;;;;;;;;;;5015687;28;20182;-76
2023/07/18 11:31:24;;;;;;;3.40;2.20;;;;;;;;;;5015045;28;20213;-76
2023/07/18 11:33:51;;;;;;;3.23;2.30;;;;;;;;;;5016952;28;20229;-76
2023/07/18 11:36:18;;;;;;;4.13;2.00;;;;;;;;;;5025717;28;20263;-76
2023/07/18 11:38:44;;;;;;;3.07;2.40;;;;;;;;;;4984359;28;20190;-76
2023/07/18 11:41:14;;;;;;;5.33;2.70;;;;;;;;;;4998385;28;20717;-76
2023/07/18 11:43:43;;;;;;;2.47;2.07;;;;;;;;;;4999711;28;20249;-76
2023/07/18 11:46:10;;;;;;;5.53;2.47;;;;;;;;;;5021711;28;20186;-76
2023/07/18 11:48:36;;;;;;;3.67;2.23;;;;;;;;;;5000744;28;20581;-76
2023/07/18 11:51:04;;;;;;;3.73;2.03;;;;;;;;;;5017917;28;20190;-76
2023/07/18 11:53:31;;;;;;;3.00;2.30;;;;;;;;;;5024732;28;20190;-76
2023/07/18 11:55:57;;;;;;;3.90;2.27;;;;;;;;;;5025548;28;20191;-77
2023/07/18 11:58:24;;;;;;;2.90;2.20;;;;;;;;;;5025072;28;20221;-76
2023/07/18 12:00:50;;;;;;;3.77;2.20;;;;;;;;;;5018447;28;20310;-76
2023/07/18 12:03:17;;;;;;;4.03;2.30;;;;;;;;;;5026048;28;20198;-76
2023/07/18 12:05:43;;;;;;;5.30;2.30;;;;;;;;;;5025367;28;20474;-76
2023/07/18 12:08:09;;;;;;;3.67;2.60;;;;;;;;;;5026716;28;20240;-77
2023/07/18 12:10:36;;;;;;;5.67;2.23;;;;;;;;;;5026399;28;20186;-79
2023/07/18 12:13:02;;;;;;;3.57;2.37;;;;;;;;;;5025022;28;20233;-76
2023/07/18 12:15:28;;;;;;;4.43;2.50;;;;;;;;;;5003565;28;20220;-77
2023/07/18 12:17:54;;;;;;;3.37;2.13;;;;;;;;;;5022150;28;20206;-77
2023/07/18 12:20:20;;;;;;;5.03;2.40;;;;;;;;;;5023237;28;20554;-77
2023/07/18 12:22:46;;;;;;;3.47;2.53;;;;;;;;;;5022962;28;20637;-77
2023/07/18 12:25:13;;;;;;;5.00;2.40;;;;;;;;;;5020283;28;20200;-77
2023/07/18 12:27:40;;;;;;;4.23;2.40;;;;;;;;;;5022693;28;20187;-77
2023/07/18 12:30:06;;;;;;;3.53;2.13;;;;;;;;;;5025118;28;20200;-77
2023/07/18 12:32:33;;;;;;;3.60;2.27;;;;;;;;;;5024183;28;20200;-77
2023/07/18 12:34:59;;;;;;;2.40;2.20;;;;;;;;;;5039710;28;20204;-77
2023/07/18 12:37:25;;;;;;;3.07;2.40;;;;;;;;;;5022724;28;20193;-77
2023/07/18 12:39:51;;;;;;;3.97;2.63;;;;;;;;;;5021157;28;20201;-77
2023/07/18 12:42:18;;;;;;;3.43;2.37;;;;;;;;;;5024785;28;20277;-77
2023/07/18 12:44:44;;;;;;;3.43;2.23;;;;;;;;;;5021767;28;20272;-77
2023/07/18 12:47:11;;;;;;;3.37;2.40;;;;;;;;;;5020871;28;20187;-77
2023/07/18 12:49:38;;;;;;;3.63;2.73;;;;;;;;;;5024336;28;20589;-77
2023/07/18 12:52:05;;;;;;;4.43;2.70;;;;;;;;;;5007400;28;20214;-77
2023/07/18 12:54:31;;;;;;;3.10;2.30;;;;;;;;;;5019264;28;20679;-77
2023/07/18 12:56:58;;;;;;;2.67;2.13;;;;;;;;;;5017879;28;20198;-77
2023/07/18 12:59:24;;;;;;;2.80;2.20;;;;;;;;;;5023937;28;20651;-77
2023/07/18 13:01:50;;;;;;;4.53;2.30;;;;;;;;;;5024110;28;20294;-77
2023/07/18 13:04:17;;;;;;;3.10;2.40;;;;;;;;;;5018244;28;20537;-77
2023/07/18 13:06:43;;;;;;;4.10;2.37;;;;;;;;;;5024423;28;20178;-77
2023/07/18 13:09:09;;;;;;;4.87;2.40;;;;;;;;;;5019306;28;20269;-77
2023/07/18 13:11:36;;;;;;;6.03;2.60;;;;;;;;;;5015816;28;20576;-76
2023/07/18 13:14:02;;;;;;;3.33;2.20;;;;;;;;;;5018986;28;20527;-76
2023/07/18 13:16:28;;;;;;;2.73;2.30;;;;;;;;;;5019379;28;20201;-76
2023/07/18 13:18:55;;;;;;;5.03;2.40;;;;;;;;;;5019061;28;20317;-76
2023/07/18 13:21:21;;;;;;;2.83;2.50;;;;;;;;;;5024023;28;20223;-77
2023/07/18 13:23:48;;;;;;;3.77;2.53;;;;;;;;;;5024501;28;20207;-77
2023/07/18 13:26:16;;;;;;;3.73;2.60;;;;;;;;;;5024608;28;20873;-77
2023/07/18 13:28:42;;;;;;;3.50;2.30;;;;;;;;;;5015518;28;20182;-77
2023/07/18 13:31:08;;;;;;;3.17;2.40;;;;;;;;;;5024604;28;20657;-77
2023/07/18 13:33:36;;;;;;;2.53;2.33;;;;;;;;;;5021824;28;20183;-77
2023/07/18 13:36:02;;;;;;;2.87;2.33;;;;;;;;;;5023777;28;20703;-77
2023/07/18 13:38:28;;;;;;;2.90;2.40;;;;;;;;;;5023776;28;20193;-77
2023/07/18 13:40:54;;;;;;;4.93;2.33;;;;;;;;;;5020355;28;20233;-78
2023/07/18 13:43:20;;;;;;;4.68;2.83;;;;;;;;;;5017993;28;20572;-77
2023/07/18 13:45:47;;;;;;;4.05;2.55;;;;;;;;;;5020344;28;20204;-77
2023/07/18 13:48:13;;;;;;;2.60;2.20;;;;;;;;;;5023739;28;20639;-78
2023/07/18 13:50:39;;;;;;;3.10;2.20;;;;;;;;;;5025489;28;20195;-77
2023/07/18 13:53:06;;;;;;;3.35;2.47;;;;;;;;;;5019462;28;20194;-77
2023/07/18 13:55:32;;;;;;;5.55;2.55;;;;;;;;;;5018546;28;20546;-77
2023/07/18 13:57:58;;;;;;;4.28;2.40;;;;;;;;;;5021531;28;20185;-78
2023/07/18 14:00:24;;;;;;;2.97;2.55;;;;;;;;;;5022667;28;20187;-78
2023/07/18 14:02:50;;;;;;;2.88;2.47;;;;;;;;;;5020474;28;20669;-78
2023/07/18 14:05:16;;;;;;;4.03;2.50;;;;;;;;;;5022067;28;20174;-79
2023/07/18 14:07:44;;;;;;;2.88;2.58;;;;;;;;;;5010137;28;20672;-77
2023/07/18 14:10:10;;;;;;;3.63;2.58;;;;;;;;;;5001493;28;20189;-77
2023/07/18 14:12:36;;;;;;;2.80;2.45;;;;;;;;;;5023673;28;20216;-77
2023/07/18 14:15:02;;;;;;;4.78;2.58;;;;;;;;;;5027536;28;20193;-77
2023/07/18 14:17:29;;;;;;;2.88;2.60;;;;;;;;;;5019716;28;20656;-77
2023/07/18 14:19:55;;;;;;;3.20;2.50;;;;;;;;;;5029511;28;20601;-77
2023/07/18 14:22:21;;;;;;;3.25;2.40;;;;;;;;;;5023638;28;20217;-78
2023/07/18 14:24:49;;;;;;;2.75;2.13;;;;;;;;;;5026049;28;20616;-77
2023/07/18 14:27:16;;;;;;;2.67;2.30;;;;;;;;;;5007873;28;20517;-77
2023/07/18 14:29:42;;;;;;;2.90;2.58;;;;;;;;;;5003260;28;20263;-78
2023/07/18 14:32:09;;;;;;;3.95;2.50;;;;;;;;;;5029167;28;20206;-78
2023/07/18 14:34:39;;;;;;;4.35;2.47;;;;;;;;;;5021570;28;20890;-77
2023/07/18 14:37:05;;;;;;;2.72;2.40;;;;;;;;;;5026209;28;20209;-78
2023/07/18 14:39:34;;;;;;;3.08;2.42;;;;;;;;;;5028436;28;20201;-80
2023/07/18 14:42:00;;;;;;;2.65;2.45;;;;;;;;;;5027105;28;20231;-80
2023/07/18 14:44:26;;;;;;;3.78;2.30;;;;;;;;;;5026734;28;20193;-77
2023/07/18 14:46:52;;;;;;;2.95;2.60;;;;;;;;;;5023113;28;20192;-77
2023/07/18 14:49:18;;;;;;;2.53;2.33;;;;;;;;;;5031585;28;20193;-78
2023/07/18 14:51:45;;;;;;;3.05;2.38;;;;;;;;;;5026095;28;20226;-78
2023/07/18 14:54:11;;;;;;;3.20;2.30;;;;;;;;;;5029278;28;20210;-78
2023/07/18 14:56:38;;;;;;;3.70;2.38;;;;;;;;;;4999279;28;20674;-78
2023/07/18 14:59:05;;;;;;;3.83;2.67;;;;;;;;;;5024358;28;20192;-78
2023/07/18 15:01:31;;;;;;;3.67;2.50;;;;;;;;;;5020249;28;20217;-78
2023/07/18 15:03:57;;;;;;;2.53;2.30;;;;;;;;;;5022430;28;20189;-78
2023/07/18 15:06:24;;;;;;;3.13;2.83;;;;;;;;;;5022684;28;20189;-78
2023/07/18 15:08:54;;;;;;;4.70;2.60;;;;;;;;;;5012967;28;20190;-78
2023/07/18 15:11:20;;;;;;;2.90;2.70;;;;;;;;;;5013795;28;20187;-78
2023/07/18 15:13:46;;;;;;;3.90;2.60;;;;;;;;;;5023417;28;20222;-79
2023/07/18 15:16:13;;;;;;;4.85;2.70;;;;;;;;;;5028412;28;20202;-78
2023/07/18 15:18:39;;;;;;;3.10;2.35;;;;;;;;;;5032271;28;20229;-78
2023/07/18 15:21:07;;;;;;;3.03;2.72;;;;;;;;;;5032100;28;20235;-78
2023/07/18 15:23:33;;;;;;;3.95;2.75;;;;;;;;;;5031428;28;20183;-78
2023/07/18 15:25:59;;;;;;;3.83;2.47;;;;;;;;;;5028515;28;20194;-77
2023/07/18 15:28:26;;;;;;;4.35;2.63;;;;;;;;;;5026936;28;20558;-78
2023/07/18 15:30:52;;;;;;;3.10;2.38;;;;;;;;;;5029408;28;20846;-77
2023/07/18 15:33:19;;;;;;;3.03;2.50;;;;;;;;;;5022772;28;20459;-78
2023/07/18 15:35:45;;;;;;;4.20;2.63;;;;;;;;;;5018922;28;20182;-77
2023/07/18 15:38:11;;;;;;;2.60;2.40;;;;;;;;;;5019596;28;20189;-81
2023/07/18 15:40:37;;;;;;;3.63;2.60;;;;;;;;;;5027216;28;20221;-78
2023/07/18 15:43:03;;;;;;;6.95;2.78;;;;;;;;;;5031295;28;20212;-80
2023/07/18 15:45:30;;;;;;;3.05;2.65;;;;;;;;;;5014103;28;20190;-78
2023/07/18 15:47:56;;;;;;;2.58;2.35;;;;;;;;;;5030514;28;20179;-79
2023/07/18 15:50:23;;;;;;;2.72;2.40;;;;;;;;;;5019672;28;20217;-78
2023/07/18 15:52:49;;;;;;;2.95;2.63;;;;;;;;;;5006202;28;20215;-79
2023/07/18 15:55:15;;;;;;;5.03;2.70;;;;;;;;;;5010305;28;20182;-79
2023/07/18 15:57:42;;;;;;;4.30;2.85;;;;;;;;;;5025494;28;20210;-79
2023/07/18 16:00:08;;;;;;;3.20;2.60;;;;;;;;;;5024823;28;20233;-79
2023/07/18 16:02:37;;;;;;;5.13;2.70;;;;;;;;;;5031709;28;20230;-79
2023/07/18 16:05:04;;;;;;;2.92;2.38;;;;;;;;;;5028205;28;20339;-79
2023/07/18 16:07:31;;;;;;;4.53;2.40;;;;;;;;;;5032188;28;20171;-79
2023/07/18 16:09:57;;;;;;;3.08;2.55;;;;;;;;;;5023812;28;20191;-79
2023/07/18 16:12:24;;;;;;;4.07;2.38;;;;;;;;;;5031251;28;20336;-79
2023/07/18 16:14:51;;;;;;;5.95;2.53;;;;;;;;;;5028024;28;20184;-78
2023/07/18 16:17:17;;;;;;;3.10;2.33;;;;;;;;;;5033525;28;20622;-78
2023/07/18 16:19:46;;;;;;;5.10;2.83;;;;;;;;;;5025743;28;20213;-79
2023/07/18 16:22:13;;;;;;;3.40;2.50;;;;;;;;;;5025729;28;20294;-79